Time;durP1;ratioP1;P1;durP2;ratioP2;P2;SDS_P1;SDS_P2;PMS_P1;PMS_P2;Temp;Humidity;BMP_temperature;BMP_pressure;BME280_temperature;BME280_humidity;BME280_pressure;Samples;Min_cycle;Max_cycle;Signal;HPM_P1;HPM_P2
2022/12/08 00:01:12;;;;;;;10.48;5.95;;;;;;;;;;4913176;29;20135;-70
2022/12/08 00:03:37;;;;;;;8.63;5.43;;;;;;;;;;4896983;29;20498;-71
2022/12/08 00:11:32;;;;;;;16.70;7.15;;;;;;;;;;4912687;29;20044;-69
2022/12/08 00:13:59;;;;;;;11.00;6.30;;;;;;;;;;4912553;29;20076;-71
2022/12/08 00:16:25;;;;;;;14.23;7.05;;;;;;;;;;4896527;29;20036;-70
2022/12/08 00:18:51;;;;;;;14.77;7.00;;;;;;;;;;4912640;29;20072;-70
2022/12/08 00:21:17;;;;;;;18.38;7.30;;;;;;;;;;4896541;29;20076;-70
2022/12/08 00:23:42;;;;;;;12.95;6.22;;;;;;;;;;4896701;29;20029;-70
2022/12/08 00:26:08;;;;;;;10.32;5.50;;;;;;;;;;4897390;29;20036;-70
2022/12/08 00:28:34;;;;;;;8.60;5.05;;;;;;;;;;4896587;29;20064;-72
2022/12/08 00:30:59;;;;;;;10.05;6.15;;;;;;;;;;4898146;29;20036;-69
2022/12/08 00:33:28;;;;;;;12.07;6.35;;;;;;;;;;4912499;29;20481;-70
2022/12/08 00:35:53;;;;;;;10.95;4.88;;;;;;;;;;4896630;29;20092;-71
2022/12/08 00:38:19;;;;;;;13.77;6.50;;;;;;;;;;4897818;29;20044;-69
2022/12/08 00:40:46;;;;;;;14.55;6.97;;;;;;;;;;4896621;29;20052;-71
2022/12/08 00:43:13;;;;;;;13.88;6.60;;;;;;;;;;4896262;29;20565;-69
2022/12/08 00:45:39;;;;;;;12.88;5.68;;;;;;;;;;4896579;29;20181;-70
2022/12/08 00:48:05;;;;;;;12.35;6.18;;;;;;;;;;4896645;29;20032;-70
2022/12/08 00:50:30;;;;;;;11.98;6.43;;;;;;;;;;4912249;29;20111;-71
2022/12/08 00:52:56;;;;;;;12.23;6.40;;;;;;;;;;4912199;29;20091;-71
2022/12/08 00:55:21;;;;;;;14.85;6.97;;;;;;;;;;4896186;29;20049;-70
2022/12/08 00:57:47;;;;;;;10.43;5.72;;;;;;;;;;4911851;29;20087;-70
2022/12/08 01:00:14;;;;;;;10.60;6.15;;;;;;;;;;4897367;29;20058;-71
2022/12/08 01:02:39;;;;;;;12.88;5.85;;;;;;;;;;4896470;29;20153;-70
2022/12/08 01:05:05;;;;;;;12.75;6.32;;;;;;;;;;4896441;29;20135;-71
2022/12/08 01:07:31;;;;;;;12.32;5.72;;;;;;;;;;4896201;29;20039;-71
2022/12/08 01:10:03;;;;;;;14.82;6.18;;;;;;;;;;4896147;29;20391;-72
2022/12/08 01:12:29;;;;;;;10.52;6.32;;;;;;;;;;4895418;29;20075;-71
2022/12/08 01:14:55;;;;;;;12.05;5.50;;;;;;;;;;4895357;29;20048;-71
2022/12/08 01:17:21;;;;;;;10.40;5.78;;;;;;;;;;4895839;29;20123;-71
2022/12/08 01:19:53;;;;;;;10.73;5.25;;;;;;;;;;4896036;29;20064;-70
2022/12/08 01:22:21;;;;;;;11.70;5.85;;;;;;;;;;4911856;29;20130;-72
2022/12/08 01:24:47;;;;;;;8.00;5.35;;;;;;;;;;4895947;29;20032;-70
2022/12/08 01:27:14;;;;;;;9.85;5.25;;;;;;;;;;4911465;29;20032;-70
2022/12/08 01:29:39;;;;;;;18.38;6.93;;;;;;;;;;4896749;29;20041;-69
2022/12/08 01:32:06;;;;;;;11.13;6.35;;;;;;;;;;4896871;29;20714;-69
2022/12/08 01:34:32;;;;;;;13.48;6.25;;;;;;;;;;4895581;29;20043;-69
2022/12/08 01:36:57;;;;;;;13.40;6.80;;;;;;;;;;4879365;29;20040;-70
2022/12/08 01:39:23;;;;;;;8.02;5.15;;;;;;;;;;4910804;29;20036;-70
2022/12/08 01:41:49;;;;;;;15.32;7.13;;;;;;;;;;4896517;29;20048;-72
2022/12/08 01:44:14;;;;;;;10.48;6.40;;;;;;;;;;4896770;29;20048;-71
2022/12/08 01:46:41;;;;;;;10.18;5.68;;;;;;;;;;4911163;29;20131;-70
2022/12/08 01:49:11;;;;;;;10.18;6.78;;;;;;;;;;4911140;29;20044;-70
2022/12/08 01:51:43;;;;;;;12.13;6.07;;;;;;;;;;4896414;29;20028;-71
2022/12/08 01:54:09;;;;;;;9.30;5.80;;;;;;;;;;4895307;29;20064;-70
2022/12/08 01:56:39;;;;;;;10.43;5.95;;;;;;;;;;4894671;29;20043;-70
2022/12/08 01:59:05;;;;;;;10.27;6.35;;;;;;;;;;4910851;29;20565;-71
2022/12/08 02:01:31;;;;;;;12.85;6.15;;;;;;;;;;4896276;29;20150;-70
2022/12/08 02:03:58;;;;;;;12.13;6.50;;;;;;;;;;4894337;29;20068;-70
2022/12/08 02:06:24;;;;;;;10.70;5.45;;;;;;;;;;4894964;29;20044;-70
2022/12/08 02:08:50;;;;;;;9.50;5.63;;;;;;;;;;4896513;29;20037;-70
2022/12/08 02:11:16;;;;;;;11.15;6.00;;;;;;;;;;4894993;29;20036;-70
2022/12/08 02:13:43;;;;;;;12.13;6.28;;;;;;;;;;4894954;29;20539;-71
2022/12/08 02:16:11;;;;;;;13.63;7.13;;;;;;;;;;4894979;29;20072;-71
2022/12/08 02:18:43;;;;;;;12.68;7.10;;;;;;;;;;4895064;29;20040;-71
2022/12/08 02:21:23;;;;;;;11.40;6.95;;;;;;;;;;4910439;29;20052;-71
2022/12/08 02:23:58;;;;;;;13.27;6.63;;;;;;;;;;4894966;29;20135;-71
2022/12/08 02:26:33;;;;;;;12.45;6.65;;;;;;;;;;4896251;29;20043;-70
2022/12/08 02:29:17;;;;;;;14.68;7.05;;;;;;;;;;4894813;29;20064;-70
2022/12/08 02:31:43;;;;;;;9.45;5.78;;;;;;;;;;4894952;29;20414;-70
2022/12/08 02:34:17;;;;;;;13.90;7.15;;;;;;;;;;4896295;29;20139;-71
2022/12/08 02:37:02;;;;;;;12.40;6.63;;;;;;;;;;4894649;29;20090;-70
2022/12/08 02:39:33;;;;;;;13.57;6.82;;;;;;;;;;4895939;29;20476;-70
2022/12/08 02:41:59;;;;;;;13.55;7.45;;;;;;;;;;4894275;29;20048;-70
2022/12/08 02:44:28;;;;;;;14.05;6.28;;;;;;;;;;4895867;29;20455;-70
2022/12/08 02:47:14;;;;;;;16.30;8.68;;;;;;;;;;4895729;29;20041;-70
2022/12/08 02:49:39;;;;;;;11.35;6.75;;;;;;;;;;4896344;29;20041;-70
2022/12/08 02:52:06;;;;;;;14.68;7.53;;;;;;;;;;4899618;29;20088;-70
2022/12/08 02:54:32;;;;;;;12.38;6.93;;;;;;;;;;4899974;29;20064;-70
2022/12/08 02:57:07;;;;;;;13.55;7.18;;;;;;;;;;4913743;29;20076;-70
2022/12/08 02:59:37;;;;;;;18.67;7.50;;;;;;;;;;4913995;29;20041;-70
2022/12/08 03:02:05;;;;;;;12.93;6.82;;;;;;;;;;4913972;29;20044;-72
2022/12/08 03:04:43;;;;;;;18.63;8.65;;;;;;;;;;4913952;29;20045;-71
2022/12/08 03:07:18;;;;;;;13.70;7.38;;;;;;;;;;4899544;29;20058;-71
2022/12/08 03:09:53;;;;;;;11.70;7.07;;;;;;;;;;4898966;29;20045;-69
2022/12/08 03:12:21;;;;;;;11.32;6.80;;;;;;;;;;4913567;29;20200;-71
2022/12/08 03:14:49;;;;;;;11.68;7.18;;;;;;;;;;4914394;29;20055;-70
2022/12/08 03:17:16;;;;;;;16.42;6.70;;;;;;;;;;4914514;29;20036;-70
2022/12/08 03:19:42;;;;;;;16.35;8.35;;;;;;;;;;4900887;29;20047;-70
2022/12/08 03:22:09;;;;;;;13.13;7.63;;;;;;;;;;4900956;29;20081;-70
2022/12/08 03:24:36;;;;;;;17.85;7.53;;;;;;;;;;4914963;29;20048;-71
2022/12/08 03:27:04;;;;;;;12.40;7.43;;;;;;;;;;4898143;29;20034;-70
2022/12/08 03:29:30;;;;;;;16.55;7.28;;;;;;;;;;4898312;29;20051;-70
2022/12/08 03:31:57;;;;;;;15.48;8.00;;;;;;;;;;4913739;29;20032;-69
2022/12/08 03:34:25;;;;;;;15.43;7.75;;;;;;;;;;4897962;29;20040;-71
2022/12/08 03:36:51;;;;;;;15.40;8.15;;;;;;;;;;4897712;29;20180;-69
2022/12/08 03:39:16;;;;;;;13.18;8.15;;;;;;;;;;4897839;29;20132;-68
2022/12/08 03:41:42;;;;;;;12.43;7.53;;;;;;;;;;4913545;29;20055;-68
2022/12/08 03:44:07;;;;;;;13.13;8.23;;;;;;;;;;4898986;29;20068;-69
2022/12/08 03:46:33;;;;;;;13.77;8.50;;;;;;;;;;4899101;29;20040;-69
2022/12/08 03:48:59;;;;;;;12.93;7.72;;;;;;;;;;4913377;29;20514;-69
2022/12/08 03:51:26;;;;;;;23.30;8.45;;;;;;;;;;4913315;29;20036;-69
2022/12/08 03:53:51;;;;;;;12.75;7.88;;;;;;;;;;4913551;29;20143;-70
2022/12/08 03:56:36;;;;;;;13.63;6.53;;;;;;;;;;4898697;29;20567;-70
2022/12/08 03:59:02;;;;;;;15.10;8.27;;;;;;;;;;4898784;29;20052;-69
2022/12/08 04:01:28;;;;;;;15.52;8.45;;;;;;;;;;4897659;29;20127;-69
2022/12/08 04:03:54;;;;;;;10.48;7.15;;;;;;;;;;4897298;29;20575;-70
2022/12/08 04:06:20;;;;;;;15.65;8.50;;;;;;;;;;4912971;29;20041;-69
2022/12/08 04:08:46;;;;;;;20.42;7.68;;;;;;;;;;4898299;29;20044;-69
2022/12/08 04:11:11;;;;;;;15.23;8.07;;;;;;;;;;4898422;29;20380;-67
2022/12/08 04:13:38;;;;;;;15.55;8.10;;;;;;;;;;4898482;29;20064;-69
2022/12/08 04:16:04;;;;;;;14.43;6.78;;;;;;;;;;4898402;29;20032;-69
2022/12/08 04:18:30;;;;;;;13.25;7.40;;;;;;;;;;4912669;29;20068;-69
2022/12/08 04:20:55;;;;;;;15.23;8.55;;;;;;;;;;4898230;29;20079;-69
2022/12/08 04:23:21;;;;;;;14.77;7.53;;;;;;;;;;4912789;29;20092;-69
2022/12/08 04:25:47;;;;;;;16.65;7.18;;;;;;;;;;4912901;29;20141;-69
2022/12/08 04:28:13;;;;;;;14.32;8.30;;;;;;;;;;4912494;29;20125;-71
2022/12/08 04:30:39;;;;;;;17.08;7.60;;;;;;;;;;4898550;29;20048;-69
2022/12/08 04:33:04;;;;;;;13.45;8.02;;;;;;;;;;4912641;29;20455;-69
2022/12/08 04:35:30;;;;;;;12.00;7.32;;;;;;;;;;4898075;29;20459;-69
2022/12/08 04:37:56;;;;;;;10.80;5.85;;;;;;;;;;4912373;29;20041;-70
2022/12/08 04:40:21;;;;;;;14.05;7.97;;;;;;;;;;4912492;29;20135;-69
2022/12/08 04:42:47;;;;;;;20.67;7.40;;;;;;;;;;4896514;29;20072;-70
2022/12/08 04:45:12;;;;;;;15.95;7.82;;;;;;;;;;4912538;29;20039;-69
2022/12/08 04:47:38;;;;;;;11.50;6.05;;;;;;;;;;4898081;29;20032;-70
2022/12/08 04:50:05;;;;;;;17.58;8.30;;;;;;;;;;4896678;29;20040;-69
2022/12/08 04:52:30;;;;;;;11.70;6.30;;;;;;;;;;4912110;29;20072;-70
2022/12/08 04:54:56;;;;;;;13.52;7.68;;;;;;;;;;4912026;29;20080;-70
2022/12/08 04:57:22;;;;;;;15.20;8.00;;;;;;;;;;4911999;29;20498;-69
2022/12/08 04:59:47;;;;;;;11.98;7.38;;;;;;;;;;4897829;29;20048;-70
2022/12/08 05:02:13;;;;;;;14.68;7.10;;;;;;;;;;4897363;29;20542;-70
2022/12/08 05:04:39;;;;;;;20.77;7.38;;;;;;;;;;4911998;29;20082;-70
2022/12/08 05:07:05;;;;;;;12.77;7.05;;;;;;;;;;4897238;29;20091;-70
2022/12/08 05:09:30;;;;;;;17.60;7.68;;;;;;;;;;4911907;29;20048;-70
2022/12/08 05:11:56;;;;;;;14.43;6.97;;;;;;;;;;4896957;29;20033;-69
2022/12/08 05:14:21;;;;;;;16.15;8.02;;;;;;;;;;4897418;29;20044;-70
2022/12/08 05:16:47;;;;;;;12.38;6.95;;;;;;;;;;4895899;29;20486;-69
2022/12/08 05:19:13;;;;;;;12.45;7.10;;;;;;;;;;4895982;29;20076;-70
2022/12/08 05:21:40;;;;;;;15.77;7.20;;;;;;;;;;4895841;29;20147;-69
2022/12/08 05:24:06;;;;;;;17.02;8.23;;;;;;;;;;4895791;29;20037;-71
2022/12/08 05:26:31;;;;;;;13.80;6.85;;;;;;;;;;4911649;29;20032;-69
2022/12/08 05:28:57;;;;;;;13.75;7.65;;;;;;;;;;4911541;29;20087;-69
2022/12/08 05:31:22;;;;;;;16.75;7.40;;;;;;;;;;4911406;29;20131;-68
2022/12/08 05:33:49;;;;;;;10.20;6.03;;;;;;;;;;4896898;29;20108;-70
2022/12/08 05:36:15;;;;;;;12.88;6.40;;;;;;;;;;4911493;29;20040;-70
2022/12/08 05:38:42;;;;;;;10.90;6.20;;;;;;;;;;4880082;29;20558;-71
2022/12/08 05:41:08;;;;;;;13.52;7.28;;;;;;;;;;4911284;29;20056;-69
2022/12/08 05:43:34;;;;;;;12.15;7.30;;;;;;;;;;4896967;29;20064;-69
2022/12/08 05:45:59;;;;;;;13.73;7.38;;;;;;;;;;4911197;29;20040;-70
2022/12/08 05:48:27;;;;;;;12.43;7.05;;;;;;;;;;4895502;29;20032;-67
2022/12/08 05:50:54;;;;;;;12.45;6.35;;;;;;;;;;4895684;29;20041;-70
2022/12/08 05:53:20;;;;;;;12.13;6.68;;;;;;;;;;4895219;29;20033;-70
2022/12/08 05:55:46;;;;;;;22.77;7.47;;;;;;;;;;4911022;29;20088;-70
2022/12/08 05:58:16;;;;;;;12.48;6.40;;;;;;;;;;4896538;29;20097;-70
2022/12/08 06:00:41;;;;;;;13.68;6.90;;;;;;;;;;4911222;29;20090;-69
2022/12/08 06:03:07;;;;;;;15.32;7.45;;;;;;;;;;4895189;29;20513;-70
2022/12/08 06:05:34;;;;;;;9.70;6.63;;;;;;;;;;4895388;29;20048;-70
2022/12/08 06:08:00;;;;;;;13.73;6.72;;;;;;;;;;4910914;29;20100;-69
2022/12/08 06:10:25;;;;;;;12.45;6.57;;;;;;;;;;4895127;29;20040;-70
2022/12/08 06:12:51;;;;;;;18.90;7.70;;;;;;;;;;4910692;29;20064;-70
2022/12/08 06:15:17;;;;;;;18.67;7.28;;;;;;;;;;4895161;29;20092;-72
2022/12/08 06:17:42;;;;;;;15.43;7.65;;;;;;;;;;4895156;29;20029;-71
2022/12/08 06:20:08;;;;;;;16.90;7.65;;;;;;;;;;4895542;29;20048;-71
2022/12/08 06:22:34;;;;;;;12.77;6.68;;;;;;;;;;4896526;29;20418;-70
2022/12/08 06:25:00;;;;;;;15.23;6.70;;;;;;;;;;4910379;29;20041;-70
2022/12/08 06:27:25;;;;;;;10.98;6.15;;;;;;;;;;4896300;29;20111;-71
2022/12/08 06:29:52;;;;;;;14.25;6.63;;;;;;;;;;4895011;29;20048;-72
2022/12/08 06:32:18;;;;;;;16.33;6.90;;;;;;;;;;4894922;29;20042;-71
2022/12/08 06:34:44;;;;;;;15.68;6.70;;;;;;;;;;4910774;29;20119;-72
2022/12/08 06:37:10;;;;;;;9.30;5.97;;;;;;;;;;4910983;29;20674;-69
2022/12/08 06:39:36;;;;;;;11.80;6.55;;;;;;;;;;4910777;29;20049;-72
2022/12/08 06:44:45;;;;;;;12.82;6.15;;;;;;;;;;4896424;29;20056;-70
2022/12/08 06:47:11;;;;;;;15.00;6.22;;;;;;;;;;4896140;29;20036;-70
2022/12/08 06:49:36;;;;;;;15.65;6.90;;;;;;;;;;4895897;29;20044;-67
2022/12/08 06:52:02;;;;;;;14.27;6.50;;;;;;;;;;4894644;29;20056;-68
2022/12/08 06:54:28;;;;;;;15.30;7.05;;;;;;;;;;4910620;29;20048;-68
2022/12/08 06:56:53;;;;;;;11.73;5.90;;;;;;;;;;4894540;29;20055;-68
2022/12/08 06:59:19;;;;;;;13.00;6.38;;;;;;;;;;4895939;29;20056;-68
2022/12/08 07:01:45;;;;;;;14.68;6.93;;;;;;;;;;4895724;29;20096;-66
2022/12/08 07:04:10;;;;;;;12.02;6.60;;;;;;;;;;4896068;29;20048;-70
2022/12/08 07:06:36;;;;;;;11.05;5.35;;;;;;;;;;4895909;29;20059;-68
2022/12/08 07:09:01;;;;;;;11.20;6.15;;;;;;;;;;4910620;29;20494;-68
2022/12/08 07:11:27;;;;;;;12.73;5.38;;;;;;;;;;4896053;29;20033;-69
2022/12/08 07:13:54;;;;;;;9.85;5.82;;;;;;;;;;4910320;29;20068;-69
2022/12/08 07:16:22;;;;;;;11.25;5.70;;;;;;;;;;4910492;29;20044;-69
2022/12/08 07:18:48;;;;;;;10.73;6.30;;;;;;;;;;4895816;29;20136;-69
2022/12/08 07:21:14;;;;;;;11.45;6.18;;;;;;;;;;4910376;29;20139;-68
2022/12/08 07:23:40;;;;;;;13.55;6.38;;;;;;;;;;4896987;29;20503;-70
2022/12/08 07:26:07;;;;;;;10.18;5.93;;;;;;;;;;4896239;29;20043;-69
2022/12/08 07:28:34;;;;;;;9.65;5.75;;;;;;;;;;4897048;29;20418;-68
2022/12/08 07:31:00;;;;;;;11.40;6.07;;;;;;;;;;4910455;29;20032;-72
2022/12/08 07:33:26;;;;;;;10.93;6.13;;;;;;;;;;4894259;29;20080;-71
2022/12/08 07:35:53;;;;;;;11.02;5.50;;;;;;;;;;4892026;29;20064;-71
2022/12/08 07:38:19;;;;;;;14.15;6.07;;;;;;;;;;4907467;29;20041;-69
2022/12/08 07:40:45;;;;;;;10.02;5.55;;;;;;;;;;4910087;29;20052;-70
2022/12/08 07:43:10;;;;;;;8.77;4.65;;;;;;;;;;4894900;29;20041;-67
2022/12/08 07:45:36;;;;;;;10.18;6.18;;;;;;;;;;4908161;29;20418;-70
2022/12/08 07:48:01;;;;;;;12.98;6.90;;;;;;;;;;4907690;29;20119;-69
2022/12/08 07:50:27;;;;;;;11.25;5.15;;;;;;;;;;4911428;29;20091;-69
2022/12/08 07:52:53;;;;;;;12.45;6.15;;;;;;;;;;4897332;29;20478;-69
2022/12/08 07:55:19;;;;;;;11.40;7.50;;;;;;;;;;4895822;29;20124;-69
2022/12/08 07:57:45;;;;;;;11.50;6.43;;;;;;;;;;4897239;29;20495;-69
2022/12/08 08:00:11;;;;;;;13.45;6.60;;;;;;;;;;4895230;29;20096;-68
2022/12/08 08:02:41;;;;;;;10.82;6.32;;;;;;;;;;4895993;29;20116;-70
2022/12/08 08:05:06;;;;;;;14.23;6.30;;;;;;;;;;4908547;29;20043;-70
2022/12/08 08:07:32;;;;;;;15.52;6.10;;;;;;;;;;4894813;29;20045;-70
2022/12/08 08:09:58;;;;;;;11.68;6.35;;;;;;;;;;4894069;29;20132;-70
2022/12/08 08:12:24;;;;;;;12.05;6.07;;;;;;;;;;4896103;29;20577;-71
2022/12/08 08:14:49;;;;;;;10.60;5.63;;;;;;;;;;4910529;29;20500;-69
2022/12/08 08:17:15;;;;;;;11.43;6.53;;;;;;;;;;4877301;29;20045;-70
2022/12/08 08:19:41;;;;;;;10.02;4.40;;;;;;;;;;4895477;29;20032;-70
2022/12/08 08:22:06;;;;;;;8.10;6.03;;;;;;;;;;4896645;29;20055;-72
2022/12/08 08:24:32;;;;;;;10.57;6.07;;;;;;;;;;4909268;29;20036;-71
2022/12/08 08:26:58;;;;;;;18.40;7.00;;;;;;;;;;4894331;29;20582;-71
2022/12/08 08:29:23;;;;;;;7.70;4.90;;;;;;;;;;4892762;29;20302;-69
2022/12/08 08:31:50;;;;;;;8.48;5.22;;;;;;;;;;4893006;29;20529;-69
2022/12/08 08:34:15;;;;;;;12.15;6.82;;;;;;;;;;4894203;29;20076;-70
2022/12/08 08:36:41;;;;;;;13.02;6.97;;;;;;;;;;4895942;29;20063;-73
2022/12/08 08:39:07;;;;;;;11.57;6.70;;;;;;;;;;4894505;29;20075;-70
2022/12/08 08:41:34;;;;;;;8.75;5.88;;;;;;;;;;4895240;29;20045;-69
2022/12/08 08:43:59;;;;;;;14.23;6.30;;;;;;;;;;4910468;29;20105;-69
2022/12/08 08:46:25;;;;;;;10.32;5.68;;;;;;;;;;4892707;29;20083;-68
2022/12/08 08:48:50;;;;;;;14.93;6.30;;;;;;;;;;4893577;29;20044;-68
2022/12/08 08:51:16;;;;;;;9.38;6.32;;;;;;;;;;4895745;29;20391;-70
2022/12/08 08:53:42;;;;;;;9.73;6.32;;;;;;;;;;4896029;29;20045;-70
2022/12/08 08:56:08;;;;;;;15.48;6.45;;;;;;;;;;4894132;29;20037;-74
2022/12/08 08:58:34;;;;;;;11.35;6.32;;;;;;;;;;4894220;29;20037;-71
2022/12/08 09:00:59;;;;;;;11.73;6.05;;;;;;;;;;4908873;29;20547;-69
2022/12/08 09:03:25;;;;;;;13.18;6.97;;;;;;;;;;4890433;29;20048;-69
2022/12/08 09:05:51;;;;;;;12.65;6.30;;;;;;;;;;4893071;29;20044;-70
2022/12/08 09:08:17;;;;;;;11.50;6.38;;;;;;;;;;4894190;29;20040;-69
2022/12/08 09:10:42;;;;;;;13.68;6.35;;;;;;;;;;4909904;29;20147;-68
2022/12/08 09:13:08;;;;;;;11.90;7.03;;;;;;;;;;4894490;29;20200;-69
2022/12/08 09:15:33;;;;;;;9.80;5.72;;;;;;;;;;4906634;29;20044;-69
2022/12/08 09:17:59;;;;;;;12.60;5.88;;;;;;;;;;4893815;29;20040;-69
2022/12/08 09:20:25;;;;;;;11.40;6.13;;;;;;;;;;4909104;29;20485;-68
2022/12/08 09:22:51;;;;;;;16.98;6.22;;;;;;;;;;4892130;29;20060;-69
2022/12/08 09:25:17;;;;;;;13.98;5.90;;;;;;;;;;4893788;29;20036;-68
2022/12/08 09:27:43;;;;;;;14.77;6.90;;;;;;;;;;4895644;29;20386;-68
2022/12/08 09:30:08;;;;;;;13.63;6.75;;;;;;;;;;4893774;29;20069;-70
2022/12/08 09:32:34;;;;;;;11.10;6.20;;;;;;;;;;4907961;29;20044;-69
2022/12/08 09:35:00;;;;;;;13.25;7.10;;;;;;;;;;4893840;29;20051;-69
2022/12/08 09:37:26;;;;;;;16.35;7.03;;;;;;;;;;4892405;29;20040;-68
2022/12/08 09:39:51;;;;;;;12.52;6.45;;;;;;;;;;4907413;29;20041;-68
2022/12/08 09:42:29;;;;;;;18.42;7.28;;;;;;;;;;4891828;29;20044;-69
2022/12/08 09:45:03;;;;;;;12.45;6.28;;;;;;;;;;4894067;29;20079;-70
2022/12/08 09:47:36;;;;;;;13.00;7.00;;;;;;;;;;4877732;29;20036;-67
2022/12/08 09:50:11;;;;;;;12.77;6.35;;;;;;;;;;4893131;29;20097;-69
2022/12/08 09:52:39;;;;;;;10.82;6.75;;;;;;;;;;4892451;29;20391;-68
2022/12/08 09:55:36;;;;;;;11.63;6.90;;;;;;;;;;4909425;29;20073;-70
2022/12/08 09:58:03;;;;;;;14.10;6.88;;;;;;;;;;4893127;29;20040;-69
2022/12/08 10:00:29;;;;;;;20.20;7.55;;;;;;;;;;4893014;29;20045;-68
2022/12/08 10:02:55;;;;;;;14.95;8.00;;;;;;;;;;4893026;29;20036;-68
2022/12/08 10:05:23;;;;;;;13.00;7.05;;;;;;;;;;4892206;29;20088;-68
2022/12/08 10:07:58;;;;;;;15.55;7.45;;;;;;;;;;4893062;29;20063;-69
2022/12/08 10:10:27;;;;;;;13.30;7.22;;;;;;;;;;4892372;29;20052;-69
2022/12/08 10:12:56;;;;;;;14.32;7.15;;;;;;;;;;4910372;29;20068;-68
2022/12/08 10:15:29;;;;;;;12.32;6.00;;;;;;;;;;4906792;29;20044;-68
2022/12/08 10:17:56;;;;;;;14.43;6.47;;;;;;;;;;4892644;29;20041;-68
2022/12/08 10:20:23;;;;;;;19.77;7.93;;;;;;;;;;4891750;29;20044;-69
2022/12/08 10:22:52;;;;;;;18.73;7.97;;;;;;;;;;4892479;29;20051;-68
2022/12/08 10:25:19;;;;;;;12.40;7.50;;;;;;;;;;4907091;29;20071;-68
2022/12/08 10:27:52;;;;;;;12.90;6.55;;;;;;;;;;4892605;29;20066;-68
2022/12/08 10:30:19;;;;;;;10.88;6.85;;;;;;;;;;4891159;29;20051;-68
2022/12/08 10:32:45;;;;;;;11.77;6.90;;;;;;;;;;4891535;29;20487;-69
2022/12/08 10:35:12;;;;;;;12.50;7.10;;;;;;;;;;4891495;29;20475;-67
2022/12/08 10:37:38;;;;;;;15.57;6.95;;;;;;;;;;4892189;29;20646;-69
2022/12/08 10:40:09;;;;;;;15.27;7.40;;;;;;;;;;4892021;29;20040;-69
2022/12/08 10:42:36;;;;;;;11.98;6.70;;;;;;;;;;4892022;29;20044;-68
2022/12/08 10:45:14;;;;;;;12.52;6.82;;;;;;;;;;4893064;29;20173;-69
2022/12/08 10:47:40;;;;;;;17.05;7.85;;;;;;;;;;4907596;29;20070;-71
2022/12/08 10:50:17;;;;;;;14.65;8.38;;;;;;;;;;4907455;29;20616;-67
2022/12/08 10:52:43;;;;;;;13.95;7.75;;;;;;;;;;4896815;29;20028;-68
2022/12/08 10:55:16;;;;;;;16.52;7.72;;;;;;;;;;4912038;29;20346;-65
2022/12/08 10:57:41;;;;;;;14.25;7.22;;;;;;;;;;4895217;29;20032;-68
2022/12/08 11:00:11;;;;;;;13.57;7.45;;;;;;;;;;4895391;29;20104;-69
2022/12/08 11:02:48;;;;;;;11.18;6.93;;;;;;;;;;4909697;29;20120;-68
2022/12/08 11:05:14;;;;;;;14.15;7.50;;;;;;;;;;4909144;29;20044;-68
2022/12/08 11:07:45;;;;;;;14.65;7.72;;;;;;;;;;4891358;29;20230;-69
2022/12/08 11:10:15;;;;;;;12.65;6.60;;;;;;;;;;4893816;29;20406;-68
2022/12/08 11:12:42;;;;;;;15.38;7.15;;;;;;;;;;4881087;29;20499;-68
2022/12/08 11:15:13;;;;;;;14.25;7.22;;;;;;;;;;4910770;29;20032;-68
2022/12/08 11:17:38;;;;;;;14.23;7.28;;;;;;;;;;4896224;29;20498;-69
2022/12/08 11:20:07;;;;;;;15.02;6.75;;;;;;;;;;4897141;29;20043;-68
2022/12/08 11:22:40;;;;;;;14.98;6.72;;;;;;;;;;4896030;29;20047;-69
2022/12/08 11:25:10;;;;;;;15.65;6.88;;;;;;;;;;4896679;29;20047;-68
2022/12/08 11:27:37;;;;;;;14.20;6.80;;;;;;;;;;4897396;29;20044;-69
2022/12/08 11:30:05;;;;;;;14.63;7.63;;;;;;;;;;4896515;29;20136;-68
2022/12/08 11:32:31;;;;;;;12.52;7.10;;;;;;;;;;4897046;29;20510;-69
2022/12/08 11:35:01;;;;;;;12.73;7.63;;;;;;;;;;4911276;29;20087;-69
2022/12/08 11:37:39;;;;;;;17.77;7.35;;;;;;;;;;4897193;29;20036;-69
2022/12/08 11:40:06;;;;;;;16.92;7.50;;;;;;;;;;4896396;29;20036;-72
2022/12/08 11:42:43;;;;;;;11.70;6.78;;;;;;;;;;4893710;29;20051;-73
2022/12/08 11:45:15;;;;;;;15.52;8.18;;;;;;;;;;4895171;29;20049;-72
2022/12/08 11:47:41;;;;;;;14.43;7.57;;;;;;;;;;4910327;29;20064;-73
2022/12/08 11:50:19;;;;;;;15.60;7.35;;;;;;;;;;4909734;29;20075;-74
2022/12/08 11:52:46;;;;;;;14.18;7.25;;;;;;;;;;4895468;29;20100;-74
2022/12/08 11:55:26;;;;;;;16.25;7.30;;;;;;;;;;4895306;29;20044;-73
2022/12/08 11:57:53;;;;;;;11.32;7.03;;;;;;;;;;4895021;29;20050;-73
2022/12/08 12:00:19;;;;;;;15.55;7.18;;;;;;;;;;4896941;29;20047;-74
2022/12/08 12:02:47;;;;;;;13.73;7.53;;;;;;;;;;4895807;29;20049;-73
2022/12/08 12:05:28;;;;;;;13.27;7.25;;;;;;;;;;4896619;29;20454;-72
2022/12/08 12:08:17;;;;;;;13.10;7.55;;;;;;;;;;4895915;29;20092;-72
2022/12/08 12:10:47;;;;;;;12.43;6.65;;;;;;;;;;4880907;29;20459;-72
2022/12/08 12:13:31;;;;;;;10.23;6.95;;;;;;;;;;4908051;29;20064;-74
2022/12/08 12:16:14;;;;;;;11.45;7.28;;;;;;;;;;4911008;29;20040;-73
2022/12/08 12:18:45;;;;;;;15.40;7.38;;;;;;;;;;4891583;29;20052;-73
2022/12/08 12:21:17;;;;;;;14.30;7.22;;;;;;;;;;4892297;29;20056;-72
2022/12/08 12:23:49;;;;;;;15.52;7.15;;;;;;;;;;4895319;29;20096;-73
2022/12/08 12:26:24;;;;;;;14.40;8.45;;;;;;;;;;4894761;29;20040;-73
2022/12/08 12:29:02;;;;;;;13.98;6.78;;;;;;;;;;4895117;29;20039;-73
2022/12/08 12:31:29;;;;;;;16.95;7.75;;;;;;;;;;4894941;29;20068;-73
2022/12/08 12:34:04;;;;;;;16.48;8.57;;;;;;;;;;4910969;29;20530;-73
2022/12/08 12:36:31;;;;;;;16.50;7.82;;;;;;;;;;4896156;29;20051;-71
2022/12/08 12:39:00;;;;;;;15.52;7.88;;;;;;;;;;4908821;29;20043;-73
2022/12/08 12:41:44;;;;;;;14.02;7.88;;;;;;;;;;4895448;29;20139;-65
2022/12/08 12:44:12;;;;;;;14.13;7.18;;;;;;;;;;4896175;29;20123;-65
2022/12/08 12:46:41;;;;;;;15.30;7.78;;;;;;;;;;4894404;29;20032;-69
2022/12/08 12:49:25;;;;;;;12.63;6.97;;;;;;;;;;4895953;29;20040;-68
2022/12/08 12:51:53;;;;;;;12.73;7.40;;;;;;;;;;4910470;29;20412;-67
2022/12/08 12:54:25;;;;;;;13.18;7.60;;;;;;;;;;4895605;29;20048;-67
2022/12/08 12:57:15;;;;;;;14.52;7.28;;;;;;;;;;4909880;29;20108;-67
2022/12/08 12:59:42;;;;;;;15.18;7.70;;;;;;;;;;4869739;29;20442;-66
2022/12/08 13:02:34;;;;;;;16.48;7.63;;;;;;;;;;4892658;29;20036;-68
2022/12/08 13:05:02;;;;;;;11.55;6.80;;;;;;;;;;4886668;29;20426;-68
2022/12/08 13:07:30;;;;;;;14.25;8.02;;;;;;;;;;4893586;29;20033;-68
2022/12/08 13:09:58;;;;;;;14.80;7.90;;;;;;;;;;4909822;29;20184;-68
2022/12/08 13:12:25;;;;;;;13.30;7.50;;;;;;;;;;4894465;29;20143;-67
2022/12/08 13:14:51;;;;;;;17.10;7.22;;;;;;;;;;4893732;29;20044;-74
2022/12/08 13:17:26;;;;;;;17.60;8.35;;;;;;;;;;4893247;29;20056;-66
2022/12/08 13:19:54;;;;;;;16.70;8.40;;;;;;;;;;4906576;29;20044;-70
2022/12/08 13:22:39;;;;;;;12.20;7.30;;;;;;;;;;4893557;29;20107;-65
2022/12/08 13:25:23;;;;;;;16.15;7.55;;;;;;;;;;4909773;29;20041;-70
2022/12/08 13:27:53;;;;;;;13.57;7.78;;;;;;;;;;4909994;29;20036;-68
2022/12/08 13:30:41;;;;;;;15.15;7.63;;;;;;;;;;4894922;29;20071;-68
2022/12/08 13:33:10;;;;;;;15.00;8.07;;;;;;;;;;4894621;29;20119;-69
2022/12/08 13:35:39;;;;;;;12.35;6.88;;;;;;;;;;4893157;29;20148;-67
2022/12/08 13:38:05;;;;;;;17.73;8.88;;;;;;;;;;4893055;29;20092;-66
2022/12/08 13:40:30;;;;;;;18.27;7.95;;;;;;;;;;4893526;29;20048;-68
2022/12/08 13:42:57;;;;;;;15.40;8.95;;;;;;;;;;4890850;29;20052;-67
2022/12/08 13:45:24;;;;;;;19.92;8.82;;;;;;;;;;4893694;29;20072;-67
2022/12/08 13:47:55;;;;;;;19.50;8.95;;;;;;;;;;4892181;29;20047;-67
2022/12/08 13:50:20;;;;;;;;;;;;;;;;;;4894709;29;20046;-66
2022/12/08 13:53:02;;;;;;;13.52;7.32;;;;;;;;;;4893555;29;20344;-67
2022/12/08 13:55:33;;;;;;;18.45;7.93;;;;;;;;;;4891775;29;20040;-68
2022/12/08 13:57:58;;;;;;;20.23;9.20;;;;;;;;;;4908811;29;20108;-66
2022/12/08 14:00:26;;;;;;;17.05;8.52;;;;;;;;;;4908658;29;20524;-67
2022/12/08 14:02:57;;;;;;;19.15;8.18;;;;;;;;;;4892864;29;20059;-67
2022/12/08 14:05:24;;;;;;;16.83;7.97;;;;;;;;;;4893109;29;20043;-66
2022/12/08 14:07:51;;;;;;;15.80;8.25;;;;;;;;;;4892946;29;20045;-66
2022/12/08 14:10:19;;;;;;;19.45;9.20;;;;;;;;;;4891536;29;20036;-64
2022/12/08 14:12:46;;;;;;;17.65;8.55;;;;;;;;;;4890731;29;20061;-66
2022/12/08 14:15:14;;;;;;;21.20;9.75;;;;;;;;;;4893890;29;20087;-65
2022/12/08 14:17:40;;;;;;;15.23;8.68;;;;;;;;;;4907782;29;20040;-68
2022/12/08 14:20:05;;;;;;;21.42;9.20;;;;;;;;;;4909231;29;20047;-68
2022/12/08 14:22:32;;;;;;;17.85;9.20;;;;;;;;;;4894301;29;20545;-67
2022/12/08 14:24:57;;;;;;;18.02;9.23;;;;;;;;;;4892954;29;20040;-68
2022/12/08 14:27:24;;;;;;;18.30;8.55;;;;;;;;;;4893451;29;20040;-66
2022/12/08 14:29:51;;;;;;;18.13;8.88;;;;;;;;;;4891181;29;20043;-64
2022/12/08 14:32:19;;;;;;;16.38;9.57;;;;;;;;;;4893533;29;20078;-66
2022/12/08 14:34:49;;;;;;;19.88;9.68;;;;;;;;;;4893024;29;20055;-64
2022/12/08 14:37:15;;;;;;;20.25;9.65;;;;;;;;;;4906388;29;20124;-71
2022/12/08 14:39:41;;;;;;;17.48;8.90;;;;;;;;;;4890030;29;20052;-70
2022/12/08 14:42:15;;;;;;;22.05;9.88;;;;;;;;;;4907496;29;20065;-71
2022/12/08 14:44:41;;;;;;;15.27;8.65;;;;;;;;;;4890260;29;20032;-69